Time;durP1;ratioP1;P1;durP2;ratioP2;P2;SDS_P1;SDS_P2;PMS_P1;PMS_P2;Temp;Humidity;BMP_temperature;BMP_pressure;BME280_temperature;BME280_humidity;BME280_pressure;Samples;Min_cycle;Max_cycle;Signal;HPM_P1;HPM_P2
2023/02/21 02:17:23;;;;;;;27.97;12.13;;;;;6.80;101595.00;;;;10049929;29;20204;-77
2023/02/21 02:22:50;;;;;;;28.87;12.80;;;;;6.70;101602.00;;;;10043005;29;20196;-77
2023/02/21 02:28:07;;;;;;;24.97;13.03;;;;;6.70;101599.00;;;;10015622;29;20212;-77
2023/02/21 02:33:30;;;;;;;33.00;15.20;;;;;6.70;101592.00;;;;10038219;29;20201;-77
2023/02/21 02:38:38;;;;;;;30.37;14.63;;;;;6.70;101595.00;;;;10040709;29;20554;-77
2023/02/21 02:43:48;;;;;;;30.70;14.67;;;;;6.70;101595.00;;;;10052922;29;20282;-77
2023/02/21 02:49:29;;;;;;;27.90;13.87;;;;;6.60;101591.00;;;;10091808;29;20206;-77
2023/02/21 02:54:32;;;;;;;20.60;10.20;;;;;6.60;101586.00;;;;10017912;29;20198;-77
2023/02/21 02:59:34;;;;;;;25.40;10.87;;;;;6.50;101579.00;;;;10005312;29;20201;-77
2023/02/21 03:04:57;;;;;;;21.77;11.13;;;;;6.60;101569.00;;;;10009837;29;20202;-77
2023/02/21 03:10:41;;;;;;;21.77;10.83;;;;;6.60;101569.00;;;;10000124;29;20311;-77
2023/02/21 03:15:51;;;;;;;18.73;9.00;;;;;6.60;101555.00;;;;10023799;29;20261;-77
2023/02/21 03:20:57;;;;;;;16.43;8.83;;;;;6.70;101554.00;;;;10014085;29;20193;-77
2023/02/21 03:26:04;;;;;;;17.97;9.33;;;;;6.70;101549.00;;;;10020660;29;20233;-77
2023/02/21 03:31:09;;;;;;;20.37;9.47;;;;;6.70;101552.00;;;;10037473;29;20269;-77
2023/02/21 03:36:11;;;;;;;21.63;9.57;;;;;6.70;101542.00;;;;10039572;29;20212;-76
2023/02/21 03:41:15;;;;;;;23.17;10.93;;;;;6.70;101544.00;;;;10040247;29;20269;-77
2023/02/21 03:46:17;;;;;;;26.97;11.97;;;;;6.70;101536.00;;;;10024528;29;20269;-77
2023/02/21 03:51:20;;;;;;;25.37;11.60;;;;;6.70;101544.00;;;;10039515;29;20668;-77
2023/02/21 03:56:22;;;;;;;23.33;10.70;;;;;6.70;101533.00;;;;10032179;29;20222;-77
2023/02/21 04:01:48;;;;;;;27.00;12.07;;;;;6.70;101539.00;;;;10004162;29;20696;-77
2023/02/21 04:06:52;;;;;;;32.60;12.73;;;;;6.70;101533.00;;;;10008347;29;20201;-77
2023/02/21 04:11:54;;;;;;;34.77;15.40;;;;;6.70;101532.00;;;;9993103;29;20731;-77
2023/02/21 04:16:56;;;;;;;45.37;16.20;;;;;6.70;101533.00;;;;10001405;29;20224;-77
2023/02/21 04:21:58;;;;;;;41.77;15.67;;;;;6.70;101528.00;;;;10038760;29;20197;-77
2023/02/21 04:27:01;;;;;;;39.73;14.13;;;;;6.60;101537.00;;;;10022007;29;20281;-77
2023/02/21 04:32:06;;;;;;;38.70;14.87;;;;;6.60;101535.00;;;;10022455;29;20364;-77
2023/02/21 04:37:09;;;;;;;41.40;14.40;;;;;6.60;101535.00;;;;10037126;29;20299;-77
2023/02/21 04:42:11;;;;;;;33.07;12.80;;;;;6.60;101528.00;;;;10053977;29;20209;-77
2023/02/21 04:47:13;;;;;;;30.27;12.73;;;;;6.60;101526.00;;;;10009073;29;20212;-77
2023/02/21 04:52:15;;;;;;;29.73;9.20;;;;;6.60;101529.00;;;;10021121;29;20213;-77
2023/02/21 04:57:17;;;;;;;21.43;8.13;;;;;6.50;101521.00;;;;10059261;29;20197;-76
2023/02/21 05:02:19;;;;;;;23.37;9.30;;;;;6.60;101521.00;;;;10035476;29;21161;-76
2023/02/21 05:07:21;;;;;;;23.47;9.10;;;;;6.60;101525.00;;;;10044327;29;20272;-77
2023/02/21 05:12:22;;;;;;;22.93;10.50;;;;;6.60;101529.00;;;;10007950;29;20213;-77
2023/02/21 05:17:26;;;;;;;24.90;10.47;;;;;6.60;101523.00;;;;10016342;29;20422;-76
2023/02/21 05:22:28;;;;;;;20.37;8.87;;;;;6.60;101522.00;;;;10034553;29;20197;-77
2023/02/21 05:27:30;;;;;;;25.63;10.17;;;;;6.60;101523.00;;;;10036994;29;20717;-77
2023/02/21 05:32:32;;;;;;;30.10;10.67;;;;;6.60;101518.00;;;;10035146;29;20646;-77
2023/02/21 05:37:34;;;;;;;23.73;9.47;;;;;6.60;101516.00;;;;10036497;29;20202;-77
2023/02/21 05:42:36;;;;;;;24.47;10.17;;;;;6.60;101509.00;;;;10010787;29;20622;-77
2023/02/21 05:47:38;;;;;;;20.93;8.60;;;;;6.60;101507.00;;;;10018476;29;20201;-77
2023/02/21 05:52:40;;;;;;;19.30;8.90;;;;;6.50;101517.00;;;;10051459;29;20242;-77
2023/02/21 05:57:42;;;;;;;17.93;7.73;;;;;6.50;101505.00;;;;10023947;29;20205;-77
2023/02/21 06:02:44;;;;;;;19.67;8.97;;;;;6.50;101506.00;;;;10020211;29;20284;-77
2023/02/21 06:07:46;;;;;;;21.37;9.70;;;;;6.50;101513.00;;;;10035432;29;20231;-77
2023/02/21 06:12:48;;;;;;;29.90;18.97;;;;;6.50;101504.00;;;;10043910;29;20209;-77
2023/02/21 06:17:50;;;;;;;25.87;13.73;;;;;6.50;101498.00;;;;10026363;29;20854;-77
2023/02/21 06:22:51;;;;;;;20.53;9.53;;;;;6.40;101492.00;;;;10042058;29;20221;-77
2023/02/21 06:27:54;;;;;;;20.90;10.67;;;;;6.40;101486.00;;;;10028004;29;20213;-77
2023/02/21 06:32:55;;;;;;;21.40;10.07;;;;;6.40;101479.00;;;;10041545;29;20277;-77
2023/02/21 06:37:57;;;;;;;20.87;10.53;;;;;6.40;101491.00;;;;10039403;29;20204;-77
2023/02/21 06:42:59;;;;;;;15.97;8.23;;;;;6.40;101494.00;;;;10041681;29;20257;-77
2023/02/21 06:48:01;;;;;;;18.77;8.33;;;;;6.40;101499.00;;;;10026383;29;20209;-77
2023/02/21 06:53:03;;;;;;;20.37;8.30;;;;;6.50;101499.00;;;;10041758;29;20213;-77
2023/02/21 06:58:05;;;;;;;18.03;7.93;;;;;6.50;101498.00;;;;10029587;29;20257;-77
2023/02/21 07:03:07;;;;;;;18.17;8.13;;;;;6.50;101499.00;;;;10041088;29;20242;-77
2023/02/21 07:08:09;;;;;;;22.53;11.13;;;;;6.50;101499.00;;;;10038351;29;20205;-77
2023/02/21 07:13:11;;;;;;;23.63;8.93;;;;;6.50;101499.00;;;;10025616;29;20677;-77
2023/02/21 07:18:13;;;;;;;15.57;7.43;;;;;6.50;101502.00;;;;10040133;29;20561;-77
2023/02/21 07:23:15;;;;;;;16.50;6.63;;;;;6.50;101498.00;;;;10041498;29;20292;-77
2023/02/21 07:28:17;;;;;;;18.57;7.17;;;;;6.50;101500.00;;;;10019196;29;20201;-77
2023/02/21 07:33:19;;;;;;;26.07;12.93;;;;;6.60;101511.00;;;;10051266;29;20197;-77
2023/02/21 07:38:26;;;;;;;10.00;5.73;;;;;6.60;101508.00;;;;10039122;29;20201;-77
2023/02/21 07:43:30;;;;;;;13.93;5.90;;;;;6.60;101511.00;;;;10024736;29;20573;-77
2023/02/21 07:48:32;;;;;;;13.13;6.30;;;;;6.60;101510.00;;;;10039237;29;20561;-77
2023/02/21 07:53:35;;;;;;;11.93;5.30;;;;;6.60;101504.00;;;;10008982;29;20205;-77
2023/02/21 07:58:37;;;;;;;14.20;6.23;;;;;6.70;101510.00;;;;10004386;29;20233;-77
2023/02/21 08:03:39;;;;;;;13.20;5.93;;;;;6.80;101519.00;;;;10034642;29;20257;-77
2023/02/21 08:08:41;;;;;;;13.07;5.90;;;;;6.80;101515.00;;;;10023856;29;20229;-76
2023/02/21 08:13:43;;;;;;;15.57;6.67;;;;;6.80;101518.00;;;;10021225;29;20217;-76
2023/02/21 08:18:49;;;;;;;15.13;6.17;;;;;6.90;101511.00;;;;10034560;29;20284;-77
2023/02/21 08:23:53;;;;;;;15.60;6.57;;;;;6.90;101508.00;;;;10027919;29;20747;-77
2023/02/21 08:28:55;;;;;;;16.13;7.40;;;;;6.90;101506.00;;;;10041618;29;20233;-77
2023/02/21 08:33:57;;;;;;;20.63;8.13;;;;;7.00;101505.00;;;;10007190;29;21544;-77
2023/02/21 08:38:59;;;;;;;19.03;7.90;;;;;7.10;101506.00;;;;10005640;29;20236;-77
2023/02/21 08:44:01;;;;;;;22.73;8.90;;;;;7.20;101510.00;;;;10040372;29;20200;-77
2023/02/21 08:49:03;;;;;;;16.43;7.47;;;;;7.20;101498.00;;;;10012923;29;20201;-77
2023/02/21 08:54:06;;;;;;;20.37;9.37;;;;;7.20;101502.00;;;;10022126;29;20298;-77
2023/02/21 08:59:08;;;;;;;19.27;8.17;;;;;7.20;101504.00;;;;10009715;29;20185;-77
2023/02/21 09:04:10;;;;;;;26.23;10.73;;;;;7.40;101507.00;;;;10026065;29;20200;-77
2023/02/21 09:09:12;;;;;;;25.43;10.93;;;;;7.50;101504.00;;;;10010877;29;20226;-77
2023/02/21 09:14:15;;;;;;;23.30;10.47;;;;;7.50;101495.00;;;;10046817;29;20213;-77
2023/02/21 09:19:17;;;;;;;28.17;10.83;;;;;7.60;101494.00;;;;10021866;29;20193;-77
2023/02/21 09:24:23;;;;;;;28.23;10.60;;;;;7.60;101492.00;;;;10036786;29;20261;-76
2023/02/21 09:29:25;;;;;;;37.83;13.87;;;;;7.70;101487.00;;;;10041621;29;20228;-77
2023/02/21 09:34:38;;;;;;;38.53;15.30;;;;;7.80;101494.00;;;;10004449;29;20599;-77
2023/02/21 09:39:40;;;;;;;38.20;14.73;;;;;7.90;101480.00;;;;10012875;29;20228;-77
2023/02/21 09:44:44;;;;;;;33.37;13.17;;;;;8.00;101471.00;;;;10022881;29;20205;-77
2023/02/21 09:49:47;;;;;;;39.13;14.83;;;;;7.90;101478.00;;;;10042966;29;20224;-77
2023/02/21 09:54:56;;;;;;;35.90;14.17;;;;;7.80;101479.00;;;;10032977;29;20213;-77
2023/02/21 09:59:58;;;;;;;40.80;14.90;;;;;7.90;101479.00;;;;10045981;29;20197;-77
2023/02/21 10:05:47;;;;;;;44.23;15.17;;;;;7.80;101475.00;;;;10038177;29;20197;-77
2023/02/21 10:10:57;;;;;;;46.27;15.17;;;;;7.70;101476.00;;;;9917325;29;20294;-77
2023/02/21 10:16:16;;;;;;;41.40;13.87;;;;;7.70;101478.00;;;;10002393;29;20204;-77
2023/02/21 10:21:29;;;;;;;53.87;16.90;;;;;7.70;101485.00;;;;10017068;29;20223;-77
2023/02/21 10:26:39;;;;;;;54.77;16.10;;;;;7.80;101479.00;;;;10015989;29;20224;-77
2023/02/21 10:31:43;;;;;;;48.27;15.17;;;;;7.80;101474.00;;;;10004665;29;20257;-77
2023/02/21 10:36:47;;;;;;;42.93;14.97;;;;;7.80;101476.00;;;;10038366;29;20198;-77
2023/02/21 10:41:50;;;;;;;44.97;14.43;;;;;7.90;101463.00;;;;9999632;29;20201;-77
2023/02/21 10:47:14;;;;;;;44.40;15.20;;;;;7.90;101473.00;;;;10021397;29;20682;-77
2023/02/21 10:52:20;;;;;;;33.17;12.30;;;;;7.90;101468.00;;;;10039039;29;20300;-77
2023/02/21 10:57:22;;;;;;;31.73;12.93;;;;;8.00;101471.00;;;;10028872;29;20220;-77
2023/02/21 11:02:36;;;;;;;41.37;14.73;;;;;8.10;101469.00;;;;10019569;29;20205;-77
2023/02/21 11:07:38;;;;;;;35.90;14.63;;;;;8.20;101464.00;;;;10035087;29;20197;-77
2023/02/21 11:12:40;;;;;;;29.30;12.27;;;;;8.20;101463.00;;;;10001783;29;20217;-77
2023/02/21 11:17:44;;;;;;;30.13;12.53;;;;;8.20;101455.00;;;;10023162;29;20294;-77
2023/02/21 11:22:48;;;;;;;29.97;11.30;;;;;8.40;101444.00;;;;10033951;29;20193;-77
2023/02/21 11:28:04;;;;;;;30.43;12.50;;;;;8.60;101432.00;;;;10017422;29;20206;-77
2023/02/21 11:33:07;;;;;;;30.70;12.43;;;;;8.70;101428.00;;;;10028707;29;20269;-77
2023/02/21 11:38:36;;;;;;;33.73;14.27;;;;;9.10;101420.00;;;;10023125;29;20201;-77
2023/02/21 11:43:47;;;;;;;33.87;13.70;;;;;9.10;101419.00;;;;10024567;29;20193;-77
2023/02/21 11:49:03;;;;;;;29.83;14.00;;;;;9.10;101416.00;;;;10038095;29;20206;-77
2023/02/21 11:54:06;;;;;;;24.17;11.97;;;;;9.40;101413.00;;;;10041834;29;20696;-77
2023/02/21 11:59:33;;;;;;;22.70;10.23;;;;;9.40;101409.00;;;;9995266;29;20212;-77
2023/02/21 12:05:18;;;;;;;25.87;11.50;;;;;9.60;101410.00;;;;10027551;29;20597;-77
2023/02/21 12:10:47;;;;;;;23.30;11.10;;;;;9.40;101404.00;;;;9991233;29;20670;-77
2023/02/21 12:16:01;;;;;;;22.37;11.60;;;;;9.40;101404.00;;;;10034408;29;20677;-77
2023/02/21 12:21:33;;;;;;;23.57;11.70;;;;;9.30;101405.00;;;;10021872;29;20199;-77
2023/02/21 12:26:41;;;;;;;20.33;10.17;;;;;9.40;101385.00;;;;10021582;29;20667;-77
2023/02/21 12:32:08;;;;;;;25.17;11.33;;;;;9.70;101382.00;;;;10037445;29;20216;-77
2023/02/21 12:37:24;;;;;;;20.00;9.83;;;;;9.70;101370.00;;;;10025307;29;20212;-77
2023/02/21 12:42:43;;;;;;;16.77;8.90;;;;;9.50;101376.00;;;;10016898;29;20211;-77
2023/02/21 12:47:59;;;;;;;22.90;10.00;;;;;9.60;101371.00;;;;10038184;29;20547;-77
2023/02/21 12:53:09;;;;;;;19.00;10.03;;;;;9.90;101359.00;;;;10026509;29;20205;-77
2023/02/21 12:58:19;;;;;;;20.83;10.93;;;;;10.30;101344.00;;;;10023546;29;20232;-77
2023/02/21 13:03:33;;;;;;;16.87;10.27;;;;;10.40;101357.00;;;;10033861;29;20186;-77
2023/02/21 13:08:55;;;;;;;15.93;9.60;;;;;10.40;101342.00;;;;9989653;29;20277;-77
2023/02/21 13:13:59;;;;;;;18.40;10.00;;;;;10.40;101335.00;;;;10011234;29;20209;-77
2023/02/21 13:19:06;;;;;;;20.27;11.00;;;;;10.50;101336.00;;;;10033442;29;20200;-77
2023/02/21 13:24:47;;;;;;;18.87;10.50;;;;;10.60;101331.00;;;;10023929;29;20224;-77
2023/02/21 13:29:49;;;;;;;19.90;10.10;;;;;10.80;101323.00;;;;9999908;29;20269;-77
2023/02/21 13:34:59;;;;;;;18.43;10.50;;;;;10.80;101318.00;;;;10019401;29;20252;-77
2023/02/21 13:40:17;;;;;;;18.27;9.03;;;;;10.90;101313.00;;;;10014672;29;20207;-77
2023/02/21 13:45:24;;;;;;;18.43;11.13;;;;;10.80;101305.00;;;;10036355;29;20200;-77
2023/02/21 13:50:33;;;;;;;20.60;10.93;;;;;10.90;101311.00;;;;10032654;29;20204;-77
2023/02/21 13:55:39;;;;;;;22.30;10.63;;;;;11.00;101299.00;;;;9980652;29;20216;-77
2023/02/21 14:00:40;;;;;;;18.13;9.63;;;;;11.20;101293.00;;;;10029102;29;20244;-78
2023/02/21 14:05:46;;;;;;;17.90;10.10;;;;;11.20;101287.00;;;;10010650;29;20552;-77
2023/02/21 14:10:53;;;;;;;19.40;10.13;;;;;11.10;101279.00;;;;10046370;29;20295;-78
2023/02/21 14:16:07;;;;;;;19.00;9.93;;;;;11.00;101280.00;;;;10004373;29;20695;-77
2023/02/21 14:21:15;;;;;;;21.13;11.37;;;;;10.90;101287.00;;;;9999486;29;20609;-77
2023/02/21 14:26:33;;;;;;;20.00;10.03;;;;;10.80;101274.00;;;;10026458;29;20270;-77
2023/02/21 14:31:51;;;;;;;21.23;10.33;;;;;10.70;101270.00;;;;10026063;29;20215;-78
2023/02/21 14:36:58;;;;;;;17.00;9.37;;;;;10.60;101272.00;;;;10024493;29;20188;-77
2023/02/21 14:42:30;;;;;;;17.40;8.90;;;;;10.60;101260.00;;;;10030576;29;20624;-77
2023/02/21 14:48:05;;;;;;;19.80;9.77;;;;;10.70;101259.00;;;;10013322;29;20253;-78
2023/02/21 14:53:32;;;;;;;17.90;9.60;;;;;10.60;101255.00;;;;10033277;29;20315;-78
2023/02/21 14:59:20;;;;;;;15.80;8.77;;;;;10.70;101254.00;;;;10031665;29;20201;-78
2023/02/21 15:04:28;;;;;;;16.30;8.93;;;;;10.40;101251.00;;;;10037976;29;20197;-78
2023/02/21 15:09:30;;;;;;;18.77;10.17;;;;;10.00;101246.00;;;;10018993;29;20206;-78
2023/02/21 15:14:40;;;;;;;17.67;10.20;;;;;10.00;101246.00;;;;10015196;29;20212;-78
2023/02/21 15:19:42;;;;;;;20.87;11.60;;;;;9.90;101248.00;;;;10050365;29;20197;-77
2023/02/21 15:25:06;;;;;;;18.10;10.87;;;;;10.00;101245.00;;;;10033289;29;20307;-77
2023/02/21 15:30:26;;;;;;;18.53;11.03;;;;;9.90;101245.00;;;;10015152;29;20211;-77
2023/02/21 15:35:35;;;;;;;19.77;11.30;;;;;9.80;101241.00;;;;10050267;29;20244;-77
2023/02/21 15:40:37;;;;;;;17.53;10.37;;;;;9.70;101228.00;;;;10027158;29;20212;-77
2023/02/21 15:45:47;;;;;;;18.90;10.77;;;;;9.60;101234.00;;;;10037076;29;20185;-77
2023/02/21 15:50:52;;;;;;;18.77;11.30;;;;;9.70;101236.00;;;;10043546;29;20661;-78
2023/02/21 15:56:15;;;;;;;20.23;11.67;;;;;9.40;101214.00;;;;9988942;29;20209;-77
2023/02/21 16:01:19;;;;;;;14.57;8.97;;;;;9.30;101222.00;;;;10014744;29;20557;-78
2023/02/21 16:06:26;;;;;;;20.50;9.97;;;;;9.20;101226.00;;;;10008796;29;20197;-77
2023/02/21 16:11:56;;;;;;;18.20;10.97;;;;;9.00;101221.00;;;;10015955;29;20893;-78
2023/02/21 16:17:21;;;;;;;24.97;12.83;;;;;8.90;101221.00;;;;10044686;29;20660;-77
2023/02/21 16:22:37;;;;;;;22.77;13.07;;;;;8.90;101210.00;;;;10024318;29;20265;-77
2023/02/21 16:28:00;;;;;;;28.13;14.37;;;;;8.80;101214.00;;;;10013188;29;20606;-77
2023/02/21 16:33:04;;;;;;;25.37;14.30;;;;;8.70;101200.00;;;;10049434;29;20209;-77
2023/02/21 16:38:09;;;;;;;20.17;10.97;;;;;8.70;101211.00;;;;10016716;29;20194;-77
2023/02/21 16:43:29;;;;;;;19.67;9.97;;;;;8.60;101209.00;;;;10008907;29;20198;-78
2023/02/21 16:48:32;;;;;;;21.40;10.70;;;;;8.40;101201.00;;;;10030565;29;20196;-77
2023/02/21 16:53:34;;;;;;;22.50;11.13;;;;;8.40;101200.00;;;;9998967;29;20300;-78
2023/02/21 16:58:41;;;;;;;19.73;10.87;;;;;8.30;101192.00;;;;10045278;29;20637;-78
2023/02/21 17:03:43;;;;;;;18.33;11.10;;;;;8.30;101198.00;;;;10026920;29;20220;-77
2023/02/21 17:08:45;;;;;;;20.23;11.40;;;;;8.20;101194.00;;;;9994500;29;20212;-77
2023/02/21 17:13:47;;;;;;;21.40;11.67;;;;;8.20;101197.00;;;;10032538;29;20854;-78
2023/02/21 17:18:49;;;;;;;23.47;11.40;;;;;8.00;101201.00;;;;10013665;29;20204;-77
2023/02/21 17:23:51;;;;;;;20.53;11.87;;;;;7.80;101196.00;;;;10008385;29;20278;-77
2023/02/21 17:28:52;;;;;;;22.27;12.80;;;;;7.60;101192.00;;;;10016239;29;20271;-77
2023/02/21 17:33:54;;;;;;;23.40;12.40;;;;;7.30;101190.00;;;;10021549;29;20220;-78
2023/02/21 17:38:56;;;;;;;19.77;11.03;;;;;7.00;101192.00;;;;10047797;29;20205;-77
2023/02/21 17:43:59;;;;;;;24.53;12.70;;;;;6.80;101190.00;;;;10014098;29;20222;-77
2023/02/21 17:49:01;;;;;;;18.23;11.00;;;;;6.60;101177.00;;;;10035731;29;20269;-77
2023/02/21 17:54:03;;;;;;;27.17;13.43;;;;;6.30;101175.00;;;;10030849;29;20213;-78
2023/02/21 17:59:05;;;;;;;20.40;11.63;;;;;6.10;101177.00;;;;10015583;29;20669;-77
2023/02/21 18:04:08;;;;;;;20.47;11.47;;;;;5.90;101175.00;;;;9991462;29;20198;-77
2023/02/21 18:09:10;;;;;;;25.97;13.20;;;;;5.80;101176.00;;;;10036333;29;20208;-77
2023/02/21 18:14:12;;;;;;;24.40;12.73;;;;;5.80;101167.00;;;;10019270;29;20209;-77
2023/02/21 18:19:14;;;;;;;25.30;13.13;;;;;5.80;101167.00;;;;10040577;29;20205;-77
2023/02/21 18:24:18;;;;;;;27.27;14.20;;;;;5.70;101161.00;;;;10034954;29;20221;-77
2023/02/21 18:29:19;;;;;;;23.63;13.13;;;;;5.60;101147.00;;;;10044776;29;20209;-77
2023/02/21 18:34:21;;;;;;;24.47;12.30;;;;;5.40;101152.00;;;;10040999;29;20213;-77
2023/02/21 18:39:24;;;;;;;27.00;13.77;;;;;5.30;101149.00;;;;10032748;29;20229;-77
2023/02/21 18:44:26;;;;;;;27.30;13.43;;;;;5.30;101141.00;;;;10023529;29;20568;-77
2023/02/21 18:49:32;;;;;;;72.07;36.77;;;;;5.20;101138.00;;;;10014456;29;20206;-77
2023/02/21 18:54:35;;;;;;;32.13;17.03;;;;;5.20;101146.00;;;;10038359;29;20742;-77
2023/02/21 18:59:37;;;;;;;30.80;17.27;;;;;5.10;101145.00;;;;10021588;29;20246;-77
2023/02/21 19:04:41;;;;;;;33.13;17.47;;;;;5.10;101139.00;;;;10003043;29;20201;-77
2023/02/21 19:09:45;;;;;;;37.03;18.47;;;;;5.10;101128.00;;;;10028829;29;20209;-77
2023/02/21 19:14:47;;;;;;;35.57;16.23;;;;;5.10;101128.00;;;;10003048;29;20300;-77
2023/02/21 19:19:48;;;;;;;33.70;16.70;;;;;5.00;101124.00;;;;10035993;29;20197;-77
2023/02/21 19:24:51;;;;;;;36.40;18.07;;;;;4.90;101120.00;;;;10045848;29;20715;-77
2023/02/21 19:29:52;;;;;;;38.93;19.33;;;;;4.80;101108.00;;;;10027910;29;20660;-77
2023/02/21 19:34:54;;;;;;;36.07;17.00;;;;;4.70;101113.00;;;;10047832;29;20217;-77
2023/02/21 19:39:56;;;;;;;34.17;15.90;;;;;4.60;101107.00;;;;10011165;29;20284;-77
2023/02/21 19:44:58;;;;;;;33.17;15.97;;;;;4.50;101102.00;;;;10028416;29;20652;-77
2023/02/21 19:50:00;;;;;;;30.83;16.03;;;;;4.40;101100.00;;;;10011564;29;20235;-77
2023/02/21 19:55:03;;;;;;;36.57;16.33;;;;;4.20;101100.00;;;;9998971;29;20264;-77
2023/02/21 20:00:09;;;;;;;32.93;15.23;;;;;3.90;101095.00;;;;10017261;29;20210;-77
2023/02/21 20:05:13;;;;;;;28.93;13.40;;;;;3.60;101087.00;;;;10017277;29;20238;-77
2023/02/21 20:10:17;;;;;;;36.53;14.67;;;;;3.40;101086.00;;;;10018135;29;20201;-77
2023/02/21 20:15:20;;;;;;;37.07;15.70;;;;;3.30;101090.00;;;;9989749;29;20221;-77
2023/02/21 20:20:22;;;;;;;47.87;17.53;;;;;3.30;101078.00;;;;10002436;29;20747;-77
2023/02/21 20:25:24;;;;;;;56.70;19.57;;;;;3.60;101068.00;;;;10022246;29;20217;-77
2023/02/21 20:30:26;;;;;;;48.57;18.73;;;;;3.70;101074.00;;;;10010705;29;20656;-76
2023/02/21 20:35:28;;;;;;;42.63;17.17;;;;;3.80;101064.00;;;;10036933;29;20209;-77
2023/02/21 20:40:34;;;;;;;41.17;18.03;;;;;3.60;101060.00;;;;10019818;29;20209;-77
2023/02/21 20:45:37;;;;;;;44.60;17.30;;;;;3.40;101061.00;;;;10001505;29;20217;-77
2023/02/21 20:50:40;;;;;;;31.70;14.57;;;;;3.10;101055.00;;;;10021911;29;20224;-77
2023/02/21 20:55:42;;;;;;;36.13;15.13;;;;;2.90;101044.00;;;;10031877;29;20253;-77
2023/02/21 21:00:44;;;;;;;29.93;14.07;;;;;2.80;101034.00;;;;10008808;29;20201;-77
2023/02/21 21:05:49;;;;;;;35.83;16.30;;;;;2.80;101034.00;;;;10005682;29;20604;-77
2023/02/21 21:10:51;;;;;;;35.57;15.53;;;;;2.70;101031.00;;;;9989965;29;20207;-77
2023/02/21 21:15:53;;;;;;;42.30;15.47;;;;;2.60;101024.00;;;;10022267;29;20881;-76
2023/02/21 21:20:55;;;;;;;51.83;17.23;;;;;2.60;101019.00;;;;10015200;29;20257;-77
2023/02/21 21:26:00;;;;;;;54.17;18.67;;;;;2.80;101007.00;;;;9999858;29;20721;-77
2023/02/21 21:31:03;;;;;;;51.13;18.20;;;;;3.10;101006.00;;;;10008250;29;20673;-77
2023/02/21 21:36:09;;;;;;;40.73;16.03;;;;;3.20;101003.00;;;;10018077;29;20696;-77
2023/02/21 21:41:12;;;;;;;55.23;19.00;;;;;3.40;100998.00;;;;10029438;29;20299;-77
2023/02/21 21:46:15;;;;;;;74.10;19.10;;;;;3.60;100983.00;;;;10042139;29;20712;-77
2023/02/21 21:51:18;;;;;;;55.67;18.23;;;;;3.80;100980.00;;;;10030429;29;20197;-77
2023/02/21 21:56:26;;;;;;;52.83;17.67;;;;;4.00;100976.00;;;;10011834;29;20217;-77
2023/02/21 22:01:28;;;;;;;52.10;18.93;;;;;4.10;100960.00;;;;10028255;29;20290;-77
2023/02/21 22:06:30;;;;;;;62.23;17.93;;;;;4.30;100962.00;;;;10039502;29;20197;-76
2023/02/21 22:11:34;;;;;;;52.40;16.23;;;;;4.40;100962.00;;;;10025289;29;20197;-77
2023/02/21 22:16:37;;;;;;;49.37;16.20;;;;;4.50;100968.00;;;;10021565;29;20198;-77
2023/02/21 22:21:41;;;;;;;35.20;13.90;;;;;4.50;100966.00;;;;10017873;29;20246;-77
2023/02/21 22:26:43;;;;;;;37.47;14.63;;;;;4.50;100973.00;;;;10020138;29;20225;-76
2023/02/21 22:31:47;;;;;;;49.77;16.77;;;;;4.60;100973.00;;;;10043566;29;20268;-77
2023/02/21 22:36:51;;;;;;;44.50;16.37;;;;;4.60;100968.00;;;;10008519;29;20205;-76
2023/02/21 22:41:53;;;;;;;42.70;16.00;;;;;4.70;100972.00;;;;10065457;29;20223;-76
2023/02/21 22:46:56;;;;;;;34.97;13.30;;;;;4.70;100962.00;;;;10037164;29;20712;-77
2023/02/21 22:51:59;;;;;;;36.33;13.73;;;;;4.70;100953.00;;;;10022699;29;20209;-77
2023/02/21 22:57:03;;;;;;;44.37;15.50;;;;;4.80;100942.00;;;;10024028;29;20205;-77
2023/02/21 23:02:05;;;;;;;45.23;17.43;;;;;4.80;100946.00;;;;10050825;29;20205;-77
2023/02/21 23:07:07;;;;;;;53.50;17.47;;;;;4.80;100941.00;;;;10010503;29;20215;-77
2023/02/21 23:12:09;;;;;;;44.70;17.27;;;;;4.90;100946.00;;;;10033020;29;20209;-77
2023/02/21 23:17:12;;;;;;;56.23;19.20;;;;;4.90;100935.00;;;;10049785;29;20218;-77
2023/02/21 23:22:14;;;;;;;49.47;18.63;;;;;4.90;100942.00;;;;10034668;29;20229;-77
2023/02/21 23:27:16;;;;;;;50.43;18.97;;;;;4.90;100939.00;;;;10008958;29;20209;-77
2023/02/21 23:32:18;;;;;;;41.07;17.53;;;;;4.90;100940.00;;;;10016445;29;20189;-77
2023/02/21 23:37:21;;;;;;;48.10;17.10;;;;;4.90;100938.00;;;;10010772;29;20213;-77
2023/02/21 23:42:23;;;;;;;45.37;19.20;;;;;4.90;100940.00;;;;10034790;29;20217;-77
2023/02/21 23:47:25;;;;;;;48.10;17.60;;;;;4.90;100938.00;;;;10024202;29;20396;-77
2023/02/21 23:52:28;;;;;;;40.80;16.90;;;;;5.00;100944.00;;;;9989240;29;20201;-77
2023/02/21 23:57:30;;;;;;;42.17;15.77;;;;;5.00;100946.00;;;;10056011;29;20189;-77
